Buevec Velika Glider Airport


Codes: LDZB/
Name: Buevec Velika Glider Airport
City: Busevec
Country: Croatia
Elevation: 341 ft.

Photos at Buevec Velika Glider Airport


   Photos courtesy of SpottingLog. You can add your own sightings and photos by signing up for a free trial today.



No photos found.

Weather at Buevec Velika Glider Airport


Time (UTC)DescriptionTempratureWindCloud coverageVisibilityPressureHumidity
18-Apr-2024 00:00Clear Sky7°C2 mph, NW0%10000m1008hPa93%
18-Apr-2024 03:00Few Clouds6°C0 mph, SW23%10000m1009hPa93%
18-Apr-2024 06:00Scattered Clouds6°C0 mph, SW41%10000m1010hPa89%
18-Apr-2024 09:00Overcast Clouds10°C4 mph, NE98%10000m1012hPa66%
18-Apr-2024 12:00Overcast Clouds14°C7 mph, NE97%10000m1011hPa38%
18-Apr-2024 15:00Overcast Clouds13°C7 mph, NE98%10000m1011hPa44%
18-Apr-2024 18:00Overcast Clouds8°C7 mph, N95%10000m1013hPa70%
18-Apr-2024 21:00Broken Clouds6°C4 mph, N78%10000m1015hPa81%
19-Apr-2024 00:00Broken Clouds5°C2 mph, NE71%10000m1017hPa83%
19-Apr-2024 03:00Broken Clouds4°C2 mph, N84%10000m1017hPa86%
19-Apr-2024 06:00Scattered Clouds7°C2 mph, SE47%10000m1019hPa71%
19-Apr-2024 09:00Clear Sky11°C4 mph, E9%10000m1018hPa44%
19-Apr-2024 12:00Scattered Clouds14°C4 mph, E28%10000m1015hPa33%
19-Apr-2024 15:00Broken Clouds14°C4 mph, SE80%10000m1013hPa33%
19-Apr-2024 18:00Overcast Clouds9°C4 mph, S90%10000m1012hPa53%
19-Apr-2024 21:00Overcast Clouds6°C4 mph, S96%10000m1011hPa58%
20-Apr-2024 00:00Overcast Clouds6°C2 mph, S98%10000m1009hPa60%
20-Apr-2024 03:00Overcast Clouds6°C0 mph, NW100%10000m1009hPa63%
20-Apr-2024 06:00Overcast Clouds8°C2 mph, N100%10000m1011hPa59%
20-Apr-2024 09:00Light Rain9°C11 mph, N100%10000m1012hPa72%
20-Apr-2024 12:00Light Rain7°C9 mph, NE100%10000m1014hPa84%
20-Apr-2024 15:00Overcast Clouds12°C9 mph, NE100%10000m1013hPa49%
20-Apr-2024 18:00Overcast Clouds9°C9 mph, NE100%10000m1015hPa63%
20-Apr-2024 21:00Overcast Clouds6°C7 mph, NE98%10000m1016hPa79%
21-Apr-2024 00:00Overcast Clouds6°C9 mph, NE99%10000m1017hPa77%
21-Apr-2024 03:00Overcast Clouds5°C11 mph, N100%10000m1017hPa69%
21-Apr-2024 06:00Overcast Clouds6°C11 mph, NE100%10000m1017hPa65%
21-Apr-2024 09:00Overcast Clouds9°C13 mph, NE100%10000m1017hPa47%
21-Apr-2024 12:00Overcast Clouds10°C13 mph, NE100%10000m1016hPa42%
21-Apr-2024 15:00Overcast Clouds10°C11 mph, NE100%10000m1015hPa48%
21-Apr-2024 18:00Overcast Clouds8°C11 mph, NE100%10000m1016hPa54%
21-Apr-2024 21:00Light Rain6°C9 mph, N100%10000m1017hPa68%
22-Apr-2024 00:00Light Rain5°C9 mph, N100%10000m1018hPa71%
22-Apr-2024 03:00Light Rain5°C2 mph, NE100%10000m1018hPa67%
22-Apr-2024 06:00Overcast Clouds5°C0 mph, NW100%10000m1019hPa70%
22-Apr-2024 09:00Light Rain7°C4 mph, NE100%10000m1020hPa68%
22-Apr-2024 12:00Overcast Clouds7°C4 mph, NE100%10000m1020hPa73%
22-Apr-2024 15:00Overcast Clouds7°C4 mph, E100%10000m1020hPa82%
22-Apr-2024 18:00Overcast Clouds5°C4 mph, SE100%10000m1020hPa91%
22-Apr-2024 21:00Overcast Clouds5°C2 mph, S100%10000m1021hPa93%